createdAt,value
2022-10-22T00:01:10.648Z,76.71
2022-10-22T00:03:40.634Z,77.23
2022-10-22T00:06:08.958Z,77.08
2022-10-22T00:08:37.042Z,76.86
2022-10-22T00:11:14.206Z,76.66
2022-10-22T00:13:43.280Z,76.47
2022-10-22T00:16:11.887Z,76.92
2022-10-22T00:18:40.869Z,76.86
2022-10-22T00:21:08.990Z,76.75
2022-10-22T00:23:40.026Z,76.76
2022-10-22T00:26:08.147Z,77.01
2022-10-22T00:28:36.786Z,77.27
2022-10-22T00:31:05.737Z,77.00
2022-10-22T00:33:33.903Z,76.85
2022-10-22T00:36:01.829Z,76.99
2022-10-22T00:38:29.851Z,77.12
2022-10-22T00:40:57.975Z,76.99
2022-10-22T00:43:27.414Z,77.23
2022-10-22T00:45:55.311Z,77.32
2022-10-22T00:48:29.779Z,77.56
2022-10-22T00:51:01.421Z,78.28
2022-10-22T00:53:37.511Z,78.47
2022-10-22T00:56:06.345Z,79.29
2022-10-22T00:58:37.659Z,79.71
2022-10-22T01:01:09.640Z,78.96
2022-10-22T01:03:37.818Z,79.19
2022-10-22T01:06:06.528Z,79.18
2022-10-22T01:09:20.588Z,78.97
2022-10-22T01:12:10.657Z,79.05
2022-10-22T01:15:10.991Z,79.40
2022-10-22T01:17:43.533Z,79.26
2022-10-22T01:20:11.596Z,79.02
2022-10-22T01:22:46.471Z,79.01
2022-10-22T01:25:30.706Z,78.90
2022-10-22T01:28:21.308Z,78.66
2022-10-22T01:30:53.451Z,79.03
2022-10-22T01:33:25.117Z,79.28
2022-10-22T01:35:53.912Z,79.18
2022-10-22T01:38:25.054Z,79.41
2022-10-22T01:40:54.653Z,79.81
2022-10-22T01:43:22.789Z,81.03
2022-10-22T01:45:54.036Z,80.86
2022-10-22T01:48:27.772Z,80.36
2022-10-22T01:51:14.492Z,80.28
2022-10-22T01:53:56.082Z,80.18
2022-10-22T01:56:30.108Z,80.03
2022-10-22T01:59:22.541Z,80.15
2022-10-22T02:02:02.009Z,80.41
2022-10-22T02:04:45.046Z,80.73
2022-10-22T02:07:15.246Z,81.29
2022-10-22T02:09:44.736Z,81.45
2022-10-22T02:12:14.092Z,81.16
2022-10-22T02:14:44.235Z,81.03
2022-10-22T02:17:18.359Z,81.00
2022-10-22T02:20:08.485Z,81.12
2022-10-22T02:22:37.730Z,81.18
2022-10-22T02:25:06.758Z,81.83
2022-10-22T02:27:45.512Z,82.17
2022-10-22T02:30:20.303Z,82.13
2022-10-22T02:33:08.227Z,81.94
2022-10-22T02:35:37.491Z,82.22
2022-10-22T02:38:06.234Z,82.31
2022-10-22T02:40:34.227Z,82.22
2022-10-22T02:43:05.125Z,82.06
2022-10-22T02:45:34.743Z,82.03
2022-10-22T02:48:03.290Z,82.08
2022-10-22T02:50:31.868Z,82.33
2022-10-22T02:53:00.040Z,82.54
2022-10-22T02:55:28.261Z,82.66
2022-10-22T02:57:56.152Z,82.77
2022-10-22T03:00:24.196Z,83.68
2022-10-22T03:02:52.383Z,83.60
2022-10-22T03:05:20.496Z,83.14
2022-10-22T03:07:48.336Z,82.85
2022-10-22T03:10:16.402Z,82.73
2022-10-22T03:12:44.470Z,82.83
2022-10-22T03:15:12.425Z,82.62
2022-10-22T03:17:40.773Z,83.02
2022-10-22T03:20:09.281Z,82.96
2022-10-22T03:22:41.037Z,82.74
2022-10-22T03:25:13.936Z,82.80
2022-10-22T03:27:42.873Z,82.89
2022-10-22T03:30:11.957Z,83.18
2022-10-22T03:32:40.171Z,83.37
2022-10-22T03:35:08.469Z,83.65
2022-10-22T03:37:37.956Z,83.53
2022-10-22T03:40:08.246Z,83.49
2022-10-22T03:42:36.112Z,83.52
2022-10-22T03:45:05.363Z,83.58
2022-10-22T03:47:33.366Z,84.03
2022-10-22T03:50:01.560Z,84.19
2022-10-22T03:52:35.213Z,83.80
2022-10-22T03:55:04.131Z,84.72
2022-10-22T03:57:32.994Z,85.42
2022-10-22T04:00:00.982Z,84.81
2022-10-22T04:02:28.999Z,84.30
2022-10-22T04:04:56.929Z,84.11
2022-10-22T04:07:24.975Z,84.53
2022-10-22T04:09:53.025Z,85.06
2022-10-22T04:12:20.904Z,84.92
2022-10-22T04:14:48.836Z,84.72
2022-10-22T04:17:17.142Z,85.40
2022-10-22T04:19:45.217Z,85.62
2022-10-22T04:22:13.071Z,85.07
2022-10-22T04:24:41.035Z,84.90
2022-10-22T04:27:09.131Z,85.05
2022-10-22T04:29:37.249Z,85.04
2022-10-22T04:32:05.435Z,85.05
2022-10-22T04:34:33.493Z,85.25
2022-10-22T04:37:01.577Z,85.48
2022-10-22T04:39:29.383Z,85.37
2022-10-22T04:41:57.506Z,85.41
2022-10-22T04:44:25.542Z,86.09
2022-10-22T04:46:53.703Z,86.12
2022-10-22T04:49:21.726Z,86.09
2022-10-22T04:51:49.667Z,85.95
2022-10-22T04:54:17.667Z,85.57
2022-10-22T04:56:45.681Z,85.44
2022-10-22T04:59:13.917Z,85.47
2022-10-22T05:01:44.602Z,85.25
2022-10-22T05:04:15.944Z,85.19
2022-10-22T05:06:44.572Z,85.06
2022-10-22T05:09:18.622Z,84.99
2022-10-22T05:11:49.218Z,85.08
2022-10-22T05:14:23.223Z,85.04
2022-10-22T05:16:52.449Z,85.01
2022-10-22T05:19:27.457Z,85.10
2022-10-22T05:21:58.148Z,85.03
2022-10-22T05:24:27.685Z,85.70
2022-10-22T05:26:57.962Z,86.16
2022-10-22T05:29:26.437Z,86.35
2022-10-22T05:31:54.649Z,86.33
2022-10-22T05:34:22.810Z,86.55
2022-10-22T05:36:50.997Z,86.92
2022-10-22T05:39:18.833Z,87.10
2022-10-22T05:41:46.778Z,86.69
2022-10-22T05:44:14.758Z,86.43
2022-10-22T05:46:43.578Z,86.45
2022-10-22T05:49:15.151Z,86.13
2022-10-22T05:51:43.126Z,85.90
2022-10-22T05:54:19.802Z,85.72
2022-10-22T05:56:48.049Z,85.65
2022-10-22T05:59:16.420Z,85.34
2022-10-22T06:01:44.563Z,85.11
2022-10-22T06:04:13.714Z,85.03
2022-10-22T06:06:51.074Z,84.92
2022-10-22T06:09:34.281Z,84.79
2022-10-22T06:12:03.036Z,84.73
2022-10-22T06:14:32.707Z,84.62
2022-10-22T06:17:00.846Z,84.34
2022-10-22T06:19:31.211Z,84.14
2022-10-22T06:21:59.401Z,83.78
2022-10-22T06:24:27.542Z,83.15
2022-10-22T06:26:55.554Z,82.99
2022-10-22T06:29:23.805Z,82.68
2022-10-22T06:31:51.734Z,82.09
2022-10-22T06:34:19.992Z,81.45
2022-10-22T06:36:48.173Z,80.47
2022-10-22T06:39:17.713Z,79.08
2022-10-22T06:41:46.037Z,78.22
2022-10-22T06:44:18.552Z,76.58
2022-10-22T06:46:52.165Z,75.61
2022-10-22T06:49:21.338Z,74.57
2022-10-22T06:51:53.819Z,73.07
2022-10-22T06:54:23.256Z,71.66
2022-10-22T06:56:51.423Z,69.03
2022-10-22T06:59:19.393Z,69.02
2022-10-22T07:01:47.321Z,68.52
2022-10-22T07:04:15.704Z,67.91
2022-10-22T07:06:43.856Z,67.02
2022-10-22T07:09:12.057Z,63.92
2022-10-22T07:11:43.255Z,63.34
2022-10-22T07:14:11.996Z,62.82
2022-10-22T07:16:43.153Z,62.78
2022-10-22T07:19:11.608Z,61.32
2022-10-22T07:21:39.816Z,59.38
2022-10-22T07:24:08.195Z,57.38
2022-10-22T07:26:37.054Z,57.30
2022-10-22T07:29:05.706Z,56.94
2022-10-22T07:31:33.777Z,56.21
2022-10-22T07:34:01.892Z,54.36
2022-10-22T07:36:29.826Z,53.30
2022-10-22T07:38:59.231Z,52.35
2022-10-22T07:41:29.189Z,51.63
2022-10-22T07:43:58.303Z,51.18
2022-10-22T07:46:27.202Z,51.17
2022-10-22T07:48:55.225Z,51.50
2022-10-22T07:51:23.391Z,50.71
2022-10-22T07:53:51.387Z,49.77
2022-10-22T07:56:19.322Z,50.24
2022-10-22T07:58:47.307Z,50.50
2022-10-22T08:01:15.551Z,50.37
2022-10-22T08:03:43.480Z,49.08
2022-10-22T08:06:14.584Z,48.65
2022-10-22T08:08:43.717Z,48.64
2022-10-22T08:11:11.872Z,48.97
2022-10-22T08:13:44.880Z,48.86
2022-10-22T08:16:14.385Z,48.37
2022-10-22T08:18:43.036Z,47.95
2022-10-22T08:21:13.043Z,48.04
2022-10-22T08:23:41.250Z,47.24
2022-10-22T08:26:10.466Z,46.71
2022-10-22T08:28:38.650Z,46.89
2022-10-22T08:31:08.271Z,46.33
2022-10-22T08:33:37.070Z,46.20
2022-10-22T08:36:06.096Z,46.02
2022-10-22T08:38:35.395Z,45.41
2022-10-22T08:41:09.900Z,45.54
2022-10-22T08:44:00.726Z,45.79
2022-10-22T08:46:34.130Z,45.52
2022-10-22T08:49:04.755Z,44.98
2022-10-22T08:51:40.520Z,45.27
2022-10-22T08:54:22.761Z,45.45
2022-10-22T08:57:13.486Z,45.98
2022-10-22T08:59:46.970Z,46.50
2022-10-22T09:02:53.947Z,46.90
2022-10-22T09:05:56.249Z,47.05
2022-10-22T09:08:24.748Z,47.33
2022-10-22T09:10:58.918Z,47.40
2022-10-22T09:13:26.983Z,47.77
2022-10-22T09:16:00.118Z,47.42
2022-10-22T09:18:40.551Z,47.41
2022-10-22T09:21:32.665Z,47.27
2022-10-22T09:24:32.283Z,47.06
2022-10-22T09:27:07.308Z,46.40
2022-10-22T09:29:35.307Z,45.67
2022-10-22T09:32:03.660Z,45.76
2022-10-22T09:34:32.698Z,45.36
2022-10-22T09:37:07.355Z,44.08
2022-10-22T09:39:37.974Z,43.03
2022-10-22T09:42:07.404Z,43.22
2022-10-22T09:44:37.511Z,42.50
2022-10-22T09:47:07.999Z,42.83
2022-10-22T09:49:36.816Z,42.77
2022-10-22T09:52:26.466Z,42.30
2022-10-22T09:54:54.342Z,41.99
2022-10-22T09:57:22.558Z,42.10
2022-10-22T09:59:51.530Z,41.16
2022-10-22T10:02:37.617Z,42.14
2022-10-22T10:05:07.882Z,41.63
2022-10-22T10:07:36.674Z,40.97
2022-10-22T10:10:19.654Z,40.95
2022-10-22T10:13:01.548Z,41.06
2022-10-22T10:15:45.862Z,40.43
2022-10-22T10:18:22.704Z,39.49
2022-10-22T10:21:17.205Z,39.23
2022-10-22T10:24:24.909Z,39.32
2022-10-22T10:27:07.527Z,38.94
2022-10-22T10:29:41.732Z,38.46
2022-10-22T10:32:48.286Z,37.58
2022-10-22T10:35:31.446Z,38.00
2022-10-22T10:38:20.069Z,38.24
2022-10-22T10:41:08.517Z,38.08
2022-10-22T10:43:36.404Z,38.81
2022-10-22T10:46:23.587Z,38.46
2022-10-22T10:49:03.372Z,38.64
2022-10-22T10:51:43.571Z,38.11
2022-10-22T10:54:27.673Z,38.21
2022-10-22T10:57:06.859Z,38.21
2022-10-22T10:59:43.664Z,37.99
2022-10-22T11:02:53.635Z,37.68
2022-10-22T11:05:32.525Z,36.97
2022-10-22T11:08:11.475Z,36.76
2022-10-22T11:10:46.873Z,35.89
2022-10-22T11:13:34.325Z,35.23
2022-10-22T11:16:15.731Z,34.99
2022-10-22T11:19:15.540Z,34.38
2022-10-22T11:21:57.196Z,34.07
2022-10-22T11:24:52.124Z,33.69
2022-10-22T11:27:31.841Z,33.93
2022-10-22T11:30:05.248Z,33.38
2022-10-22T11:32:33.809Z,33.48
2022-10-22T11:35:05.747Z,33.59
2022-10-22T11:37:39.125Z,32.66
2022-10-22T11:40:29.126Z,32.24
2022-10-22T11:42:59.584Z,32.13
2022-10-22T11:45:31.183Z,32.99
2022-10-22T11:48:06.939Z,33.37
2022-10-22T11:50:56.716Z,33.82
2022-10-22T11:53:32.073Z,33.56
2022-10-22T11:56:13.628Z,34.11
2022-10-22T11:58:50.722Z,34.35
2022-10-22T12:01:40.581Z,34.40
2022-10-22T12:04:22.182Z,33.48
2022-10-22T12:07:01.969Z,33.60
2022-10-22T12:09:32.913Z,33.94
2022-10-22T12:12:14.284Z,34.02
2022-10-22T12:14:59.529Z,33.35
2022-10-22T12:17:29.864Z,34.13
2022-10-22T12:20:13.127Z,34.44
2022-10-22T12:22:42.348Z,34.38
2022-10-22T12:25:22.868Z,34.48
2022-10-22T12:27:57.481Z,34.78
2022-10-22T12:30:35.189Z,34.99
2022-10-22T12:33:06.628Z,35.23
2022-10-22T12:35:43.540Z,34.61
2022-10-22T12:38:23.444Z,35.05
2022-10-22T12:40:55.895Z,35.66
2022-10-22T12:43:29.945Z,35.70
2022-10-22T12:45:59.910Z,35.88
2022-10-22T12:48:34.503Z,36.61
2022-10-22T12:51:04.976Z,36.99
2022-10-22T12:53:37.896Z,37.27
2022-10-22T12:56:22.024Z,37.36
2022-10-22T12:59:05.725Z,37.60
2022-10-22T13:01:40.130Z,37.60
2022-10-22T13:04:16.989Z,37.92
2022-10-22T13:06:47.890Z,38.33
2022-10-22T13:09:25.232Z,38.56
2022-10-22T13:12:04.712Z,38.46
2022-10-22T13:14:35.416Z,38.73
2022-10-22T13:17:36.661Z,39.10
2022-10-22T13:20:16.376Z,39.55
2022-10-22T13:22:55.423Z,39.81
2022-10-22T13:25:28.450Z,40.09
2022-10-22T13:28:01.410Z,40.25
2022-10-22T13:30:40.056Z,40.45
2022-10-22T13:33:39.198Z,40.55
2022-10-22T13:36:09.666Z,40.86
2022-10-22T13:38:37.769Z,41.12
2022-10-22T13:41:17.977Z,41.37
2022-10-22T13:43:45.998Z,41.66
2022-10-22T13:46:14.620Z,41.71
2022-10-22T13:48:44.225Z,41.71
2022-10-22T13:51:20.430Z,41.91
2022-10-22T13:53:50.475Z,42.11
2022-10-22T13:56:20.783Z,42.36
2022-10-22T13:58:49.052Z,42.56
2022-10-22T14:01:25.802Z,42.68
2022-10-22T14:03:58.245Z,42.99
2022-10-22T14:06:31.301Z,43.33
2022-10-22T14:09:02.927Z,43.62
2022-10-22T14:11:32.774Z,43.64
2022-10-22T14:14:08.927Z,44.07
2022-10-22T14:16:37.684Z,44.44
2022-10-22T14:19:10.515Z,44.84
2022-10-22T14:21:38.653Z,45.20
2022-10-22T14:24:09.444Z,45.33
2022-10-22T14:26:40.376Z,45.64
2022-10-22T14:29:09.834Z,45.73
2022-10-22T14:34:15.190Z,46.40
2022-10-22T14:36:44.075Z,46.46
2022-10-22T14:39:13.715Z,46.75
2022-10-22T14:41:42.632Z,46.93
2022-10-22T14:44:14.516Z,47.13
2022-10-22T14:46:44.507Z,47.30
2022-10-22T14:49:12.938Z,47.51
2022-10-22T14:51:42.080Z,47.65
2022-10-22T14:54:10.113Z,47.99
2022-10-22T14:56:38.378Z,48.64
2022-10-22T14:59:06.347Z,49.18
2022-10-22T15:01:34.416Z,49.14
2022-10-22T15:04:02.452Z,49.30
2022-10-22T15:06:30.537Z,49.79
2022-10-22T15:08:58.659Z,50.58
2022-10-22T15:11:27.015Z,51.20
2022-10-22T15:13:55.405Z,51.83
2022-10-22T15:16:23.349Z,51.78
2022-10-22T15:18:53.092Z,52.12
2022-10-22T15:21:23.162Z,52.50
2022-10-22T15:23:51.027Z,52.68
2022-10-22T15:26:19.307Z,52.82
2022-10-22T15:28:47.270Z,53.04
2022-10-22T15:31:15.759Z,53.14
2022-10-22T15:33:44.342Z,53.73
2022-10-22T15:36:16.415Z,53.69
2022-10-22T15:38:44.507Z,54.21
2022-10-22T15:41:13.568Z,54.33
2022-10-22T15:43:42.176Z,54.45
2022-10-22T15:46:18.923Z,55.19
2022-10-22T15:48:46.933Z,55.63
2022-10-22T15:51:17.837Z,55.76
2022-10-22T15:53:54.911Z,55.92
2022-10-22T15:56:24.118Z,56.20
2022-10-22T15:59:02.881Z,56.24
2022-10-22T16:01:32.450Z,56.73
2022-10-22T16:04:02.947Z,57.28
2022-10-22T16:06:38.272Z,57.10
2022-10-22T16:09:09.493Z,56.91
2022-10-22T16:11:38.257Z,57.21
2022-10-22T16:14:07.491Z,57.60
2022-10-22T16:16:39.513Z,57.67
2022-10-22T16:19:07.537Z,57.79
2022-10-22T16:21:35.467Z,58.37
2022-10-22T16:24:06.218Z,58.52
2022-10-22T16:26:35.771Z,59.06
2022-10-22T16:29:04.515Z,58.74
2022-10-22T16:31:32.696Z,58.67
2022-10-22T16:34:00.767Z,58.74
2022-10-22T16:36:28.789Z,58.89
2022-10-22T16:38:56.694Z,58.74
2022-10-22T16:41:26.016Z,58.96
2022-10-22T16:43:55.329Z,59.10
2022-10-22T16:46:23.432Z,59.43
2022-10-22T16:48:53.012Z,59.82
2022-10-22T16:51:24.073Z,60.26
2022-10-22T16:53:53.397Z,60.38
2022-10-22T16:56:22.248Z,60.21
2022-10-22T16:58:53.224Z,60.52
2022-10-22T17:01:22.835Z,60.59
2022-10-22T17:03:51.120Z,60.57
2022-10-22T17:06:19.354Z,60.69
2022-10-22T17:08:48.047Z,60.48
2022-10-22T17:11:19.448Z,60.50
2022-10-22T17:13:49.536Z,60.55
2022-10-22T17:16:19.904Z,60.76
2022-10-22T17:18:47.954Z,61.19
2022-10-22T17:21:16.785Z,61.18
2022-10-22T17:23:45.280Z,61.54
2022-10-22T17:26:17.574Z,61.72
2022-10-22T17:28:45.907Z,61.69
2022-10-22T17:31:37.542Z,61.81
2022-10-22T17:34:08.371Z,62.20
2022-10-22T17:36:37.036Z,62.64
2022-10-22T17:39:07.460Z,63.04
2022-10-22T17:41:37.536Z,63.25
2022-10-22T17:44:09.353Z,63.26
2022-10-22T17:46:40.302Z,63.32
2022-10-22T17:49:18.656Z,63.80
2022-10-22T17:51:49.298Z,64.70
2022-10-22T17:54:20.282Z,64.97
2022-10-22T17:56:48.418Z,64.95
2022-10-22T17:59:17.190Z,65.05
2022-10-22T18:01:46.938Z,65.20
2022-10-22T18:04:17.974Z,64.79
2022-10-22T18:06:47.736Z,64.47
2022-10-22T18:09:18.738Z,64.49
2022-10-22T18:11:49.223Z,64.61
2022-10-22T18:14:23.782Z,64.78
2022-10-22T18:16:52.624Z,65.50
2022-10-22T18:19:23.377Z,65.57
2022-10-22T18:21:51.793Z,65.54
2022-10-22T18:24:19.982Z,65.44
2022-10-22T18:26:50.415Z,65.47
2022-10-22T18:29:20.794Z,65.76
2022-10-22T18:31:49.253Z,65.81
2022-10-22T18:34:20.243Z,65.90
2022-10-22T18:36:51.715Z,66.74
2022-10-22T18:39:20.150Z,66.89
2022-10-22T18:41:48.419Z,66.67
2022-10-22T18:44:17.055Z,66.59
2022-10-22T18:46:45.295Z,66.63
2022-10-22T18:49:18.512Z,66.63
2022-10-22T18:51:52.604Z,66.73
2022-10-22T18:54:23.663Z,66.90
2022-10-22T18:56:57.981Z,66.77
2022-10-22T18:59:27.512Z,67.09
2022-10-22T19:01:59.547Z,67.32
2022-10-22T19:04:33.337Z,67.84
2022-10-22T19:07:01.620Z,67.82
2022-10-22T19:09:30.055Z,67.74
2022-10-22T19:11:58.169Z,67.66
2022-10-22T19:14:27.018Z,67.69
2022-10-22T19:16:55.433Z,67.60
2022-10-22T19:19:24.503Z,67.52
2022-10-22T19:21:52.697Z,67.69
2022-10-22T19:24:20.974Z,68.04
2022-10-22T19:26:50.284Z,68.08
2022-10-22T19:29:20.715Z,68.76
2022-10-22T19:31:51.857Z,69.77
2022-10-22T19:34:20.830Z,70.03
2022-10-22T19:36:51.930Z,69.97
2022-10-22T19:39:20.258Z,70.38
2022-10-22T19:41:48.537Z,70.61
2022-10-22T19:44:16.574Z,70.61
2022-10-22T19:46:44.848Z,70.69
2022-10-22T19:49:16.564Z,71.02
2022-10-22T19:51:47.172Z,70.97
2022-10-22T19:54:18.724Z,71.05
2022-10-22T19:56:48.817Z,72.06
2022-10-22T19:59:17.854Z,72.81
2022-10-22T20:01:46.400Z,72.64
2022-10-22T20:04:16.893Z,72.52
2022-10-22T20:06:45.513Z,72.49
2022-10-22T20:09:14.128Z,72.55
2022-10-22T20:11:42.356Z,73.02
2022-10-22T20:14:10.490Z,73.49
2022-10-22T20:16:39.354Z,73.33
2022-10-22T20:19:08.911Z,73.44
2022-10-22T20:21:37.540Z,74.20
2022-10-22T20:24:05.821Z,74.08
2022-10-22T20:26:34.666Z,74.10
2022-10-22T20:29:02.884Z,74.00
2022-10-22T20:31:33.011Z,74.63
2022-10-22T20:34:01.895Z,75.94
2022-10-22T20:36:31.803Z,75.95
2022-10-22T20:39:06.454Z,75.83
2022-10-22T20:41:38.043Z,75.71
2022-10-22T20:44:09.997Z,75.70
2022-10-22T20:46:38.241Z,76.54
2022-10-22T20:49:10.677Z,76.62
2022-10-22T20:51:39.270Z,76.51
2022-10-22T20:54:09.099Z,76.34
2022-10-22T20:56:39.390Z,76.27
2022-10-22T20:59:11.218Z,76.48
2022-10-22T21:01:42.622Z,76.26
2022-10-22T21:04:11.192Z,76.62
2022-10-22T21:06:41.440Z,77.21
2022-10-22T21:09:11.978Z,76.98
2022-10-22T21:11:41.706Z,77.03
2022-10-22T21:14:12.251Z,77.54
2022-10-22T21:16:45.511Z,78.51
2022-10-22T21:19:13.465Z,79.12
2022-10-22T21:21:41.422Z,78.82
2022-10-22T21:24:09.683Z,79.04
2022-10-22T21:26:39.209Z,79.56
2022-10-22T21:29:07.796Z,79.64
2022-10-22T21:31:35.962Z,79.80
2022-10-22T21:34:04.005Z,80.11
2022-10-22T21:36:31.977Z,79.98
2022-10-22T21:39:01.973Z,80.31
2022-10-22T21:41:30.109Z,80.82
2022-10-22T21:43:58.791Z,81.05
2022-10-22T21:46:28.180Z,81.88
2022-10-22T21:49:02.124Z,83.01
2022-10-22T21:51:33.057Z,82.58
2022-10-22T21:54:01.956Z,82.29
2022-10-22T21:56:33.199Z,82.23
2022-10-22T21:59:03.515Z,82.23
2022-10-22T22:01:32.379Z,82.31
2022-10-22T22:04:00.460Z,82.77
2022-10-22T22:06:33.379Z,82.65
2022-10-22T22:09:03.877Z,82.82
2022-10-22T22:11:32.609Z,83.89
2022-10-22T22:14:00.576Z,84.06
2022-10-22T22:16:31.791Z,83.63
2022-10-22T22:19:02.164Z,83.77
2022-10-22T22:21:30.973Z,83.79
2022-10-22T22:23:58.935Z,84.15
2022-10-22T22:26:30.074Z,84.36
2022-10-22T22:28:59.808Z,84.28
2022-10-22T22:31:30.386Z,84.69
2022-10-22T22:34:03.666Z,85.23
2022-10-22T22:36:37.925Z,86.25
2022-10-22T22:39:08.008Z,86.38
2022-10-22T22:41:35.986Z,87.64
2022-10-22T22:44:04.493Z,88.34
2022-10-22T22:46:32.679Z,88.26
2022-10-22T22:49:00.908Z,87.39
2022-10-22T22:51:28.905Z,86.92
2022-10-22T22:54:01.132Z,86.66
2022-10-22T22:56:31.673Z,86.68
2022-10-22T22:58:59.577Z,86.71
2022-10-22T23:01:32.992Z,86.54
2022-10-22T23:04:23.850Z,86.67
2022-10-22T23:06:52.271Z,87.33
2022-10-22T23:11:53.903Z,87.36
2022-10-22T23:14:21.979Z,87.39
2022-10-22T23:16:52.653Z,87.65
2022-10-22T23:19:22.840Z,89.25
2022-10-22T23:21:53.340Z,89.48
2022-10-22T23:24:27.046Z,89.46
2022-10-22T23:26:56.225Z,89.53
2022-10-22T23:29:29.551Z,89.90
2022-10-22T23:32:02.331Z,90.19
2022-10-22T23:34:32.090Z,90.18
2022-10-22T23:37:00.115Z,90.41
2022-10-22T23:39:28.868Z,90.19
2022-10-22T23:41:57.315Z,90.74
2022-10-22T23:44:25.988Z,91.12
2022-10-22T23:46:55.246Z,91.47
2022-10-22T23:49:23.170Z,91.20
2022-10-22T23:51:51.076Z,90.93
2022-10-22T23:54:19.209Z,90.85
2022-10-22T23:56:47.282Z,91.06
2022-10-22T23:59:16.115Z,91.66
